EGHH/BOH METAR and TAF weather

Enter ICAO airport designator
Station Type Date Time Source
EGHH METAR 2020/09/21 23:50 UTC NOAA

EGHH 212350Z 35003KT 9999 MIFG NSC 11/10 Q1015


Station Type Date Time Source
EGHH Decoded METAR 2020/09/21 23:50 UTC NOAA

Bournemouth Airport, United Kingdom (EGHH) 50-47N 001-50W 0M
Sep 21, 2020 - 07:50 PM EDT / 2020.09.21 2350 UTC
Wind: from the N (350 degrees) at 3 MPH (3 KT):0
Visibility: greater than 7 mile(s):0
Weather: shallow fog
Temperature: 51 F (11 C)
Dew Point: 50 F (10 C)
Relative Humidity: 93%
Pressure (altimeter): 29.97 in. Hg (1015 hPa)
ob: EGHH 212350Z 35003KT 9999 MIFG NSC 11/10 Q1015
cycle: 0

Station Type Date Time Source
EGHH TAF 2020/02/21 21:06 UTC NOAA

TAF EGHH 210200Z 2021/2123 CNL

Example: see airport list